sensor_id;sensor_type;location;lat;lon;timestamp;pressure;altitude;pressure_sealevel;temperature;humidity
9235;BME280;4652;42.716;23.218;2022-12-15T02:08:06;93985.03;;;1.76;100.00
9235;BME280;4652;42.716;23.218;2022-12-15T02:15:06;93947.91;;;1.76;100.00
9235;BME280;4652;42.716;23.218;2022-12-15T02:22:08;93964.66;;;1.82;100.00
9235;BME280;4652;42.716;23.218;2022-12-15T02:29:10;93988.69;;;2.07;100.00
9235;BME280;4652;42.716;23.218;2022-12-15T02:36:02;93970.72;;;2.24;100.00
9235;BME280;4652;42.716;23.218;2022-12-15T02:42:50;93985.63;;;2.35;100.00
9235;BME280;4652;42.716;23.218;2022-12-15T02:49:40;94003.19;;;2.41;100.00
9235;BME280;4652;42.716;23.218;2022-12-15T02:56:33;94000.88;;;2.60;100.00
9235;BME280;4652;42.716;23.218;2022-12-15T03:03:19;94007.28;;;2.64;100.00
9235;BME280;4652;42.716;23.218;2022-12-15T03:10:05;94008.63;;;2.66;100.00
9235;BME280;4652;42.716;23.218;2022-12-15T03:16:50;94017.13;;;2.63;100.00
9235;BME280;4652;42.716;23.218;2022-12-15T03:23:33;94011.69;;;2.38;100.00
9235;BME280;4652;42.716;23.218;2022-12-15T03:30:16;93948.00;;;1.96;100.00
9235;BME280;4652;42.716;23.218;2022-12-15T03:36:59;94005.28;;;2.29;100.00
9235;BME280;4652;42.716;23.218;2022-12-15T03:43:42;94013.84;;;2.46;100.00
9235;BME280;4652;42.716;23.218;2022-12-15T03:50:27;94034.09;;;2.57;100.00
9235;BME280;4652;42.716;23.218;2022-12-15T03:57:30;94030.16;;;2.65;100.00
9235;BME280;4652;42.716;23.218;2022-12-15T04:04:12;94019.16;;;2.46;100.00
9235;BME280;4652;42.716;23.218;2022-12-15T04:10:54;94021.59;;;2.53;100.00
9235;BME280;4652;42.716;23.218;2022-12-15T04:17:39;94026.09;;;2.52;100.00
9235;BME280;4652;42.716;23.218;2022-12-15T04:24:21;94051.38;;;2.60;100.00
9235;BME280;4652;42.716;23.218;2022-12-15T04:31:22;94004.31;;;2.50;100.00
9235;BME280;4652;42.716;23.218;2022-12-15T04:38:26;94036.00;;;2.62;100.00
9235;BME280;4652;42.716;23.218;2022-12-15T04:45:25;94032.41;;;2.36;100.00
9235;BME280;4652;42.716;23.218;2022-12-15T04:52:24;94039.06;;;2.38;100.00
9235;BME280;4652;42.716;23.218;2022-12-15T04:59:25;94077.97;;;2.18;100.00
9235;BME280;4652;42.716;23.218;2022-12-15T05:06:24;94101.91;;;2.23;100.00
9235;BME280;4652;42.716;23.218;2022-12-15T05:13:24;94119.69;;;2.22;100.00
9235;BME280;4652;42.716;23.218;2022-12-15T05:20:25;94129.97;;;2.14;100.00
9235;BME280;4652;42.716;23.218;2022-12-15T05:27:24;94147.91;;;2.28;100.00
9235;BME280;4652;42.716;23.218;2022-12-15T05:34:26;94160.94;;;2.35;100.00
9235;BME280;4652;42.716;23.218;2022-12-15T05:41:10;94187.50;;;2.35;100.00
9235;BME280;4652;42.716;23.218;2022-12-15T05:47:53;94218.22;;;2.53;100.00
9235;BME280;4652;42.716;23.218;2022-12-15T05:54:35;94223.88;;;2.66;100.00
9235;BME280;4652;42.716;23.218;2022-12-15T06:01:19;94219.75;;;2.80;100.00
9235;BME280;4652;42.716;23.218;2022-12-15T08:08:06;94327.00;;;5.88;100.00
9235;BME280;4652;42.716;23.218;2022-12-15T08:14:48;94323.75;;;5.81;100.00
9235;BME280;4652;42.716;23.218;2022-12-15T08:21:31;94347.31;;;5.69;100.00
9235;BME280;4652;42.716;23.218;2022-12-15T08:28:15;94352.28;;;6.11;100.00
9235;BME280;4652;42.716;23.218;2022-12-15T08:34:57;94359.06;;;7.01;100.00
9235;BME280;4652;42.716;23.218;2022-12-15T08:41:40;94352.84;;;8.49;100.00
9235;BME280;4652;42.716;23.218;2022-12-15T08:48:24;94339.91;;;9.12;100.00
9235;BME280;4652;42.716;23.218;2022-12-15T08:55:08;94362.84;;;9.23;100.00
9235;BME280;4652;42.716;23.218;2022-12-15T09:01:50;94355.28;;;9.25;100.00
9235;BME280;4652;42.716;23.218;2022-12-15T09:08:34;94346.00;;;9.18;100.00
9235;BME280;4652;42.716;23.218;2022-12-15T09:15:16;94339.38;;;9.29;100.00
9235;BME280;4652;42.716;23.218;2022-12-15T09:21:58;94331.97;;;8.46;100.00
9235;BME280;4652;42.716;23.218;2022-12-15T09:28:43;94309.50;;;8.79;100.00
9235;BME280;4652;42.716;23.218;2022-12-15T09:35:25;94358.78;;;9.26;100.00
9235;BME280;4652;42.716;23.218;2022-12-15T09:42:22;94358.00;;;9.07;100.00
9235;BME280;4652;42.716;23.218;2022-12-15T09:49:13;94351.06;;;8.63;100.00
9235;BME280;4652;42.716;23.218;2022-12-15T09:56:11;94367.31;;;8.53;100.00
9235;BME280;4652;42.716;23.218;2022-12-15T10:03:28;94351.34;;;7.91;100.00
9235;BME280;4652;42.716;23.218;2022-12-15T10:10:21;94357.78;;;7.27;100.00
9235;BME280;4652;42.716;23.218;2022-12-15T10:17:15;94364.97;;;7.65;100.00
9235;BME280;4652;42.716;23.218;2022-12-15T10:24:10;94321.22;;;7.18;100.00
9235;BME280;4652;42.716;23.218;2022-12-15T10:30:58;94377.53;;;7.70;100.00
9235;BME280;4652;42.716;23.218;2022-12-15T10:37:41;94376.69;;;8.74;100.00
9235;BME280;4652;42.716;23.218;2022-12-15T10:44:24;94375.59;;;8.75;100.00
9235;BME280;4652;42.716;23.218;2022-12-15T10:51:16;94372.22;;;8.46;100.00
9235;BME280;4652;42.716;23.218;2022-12-15T10:58:00;94367.59;;;8.52;100.00
9235;BME280;4652;42.716;23.218;2022-12-15T11:04:53;94374.28;;;8.73;100.00
9235;BME280;4652;42.716;23.218;2022-12-15T11:11:45;94378.50;;;8.79;100.00
9235;BME280;4652;42.716;23.218;2022-12-15T11:18:48;94386.50;;;8.42;100.00
9235;BME280;4652;42.716;23.218;2022-12-15T11:25:35;94381.75;;;8.05;100.00
9235;BME280;4652;42.716;23.218;2022-12-15T11:32:23;94381.16;;;7.84;100.00
9235;BME280;4652;42.716;23.218;2022-12-15T11:39:15;94360.97;;;7.63;100.00
9235;BME280;4652;42.716;23.218;2022-12-15T11:46:11;94388.59;;;7.92;100.00
9235;BME280;4652;42.716;23.218;2022-12-15T14:08:11;94517.66;;;6.53;100.00
9235;BME280;4652;42.716;23.218;2022-12-15T14:14:55;94525.44;;;6.39;100.00
9235;BME280;4652;42.716;23.218;2022-12-15T14:21:37;94542.56;;;6.33;100.00
9235;BME280;4652;42.716;23.218;2022-12-15T14:28:29;94546.59;;;6.45;100.00
9235;BME280;4652;42.716;23.218;2022-12-15T14:35:12;94563.16;;;6.27;100.00
9235;BME280;4652;42.716;23.218;2022-12-15T14:41:56;94566.66;;;6.18;100.00
9235;BME280;4652;42.716;23.218;2022-12-15T14:48:47;94582.66;;;6.08;100.00
9235;BME280;4652;42.716;23.218;2022-12-15T14:55:33;94560.72;;;5.75;100.00
9235;BME280;4652;42.716;23.218;2022-12-15T15:02:18;94567.09;;;5.59;100.00
9235;BME280;4652;42.716;23.218;2022-12-15T15:09:14;94603.34;;;5.35;100.00
9235;BME280;4652;42.716;23.218;2022-12-15T15:16:02;94590.16;;;5.08;100.00
9235;BME280;4652;42.716;23.218;2022-12-15T15:22:46;94629.31;;;4.98;100.00
9235;BME280;4652;42.716;23.218;2022-12-15T15:29:43;94615.13;;;4.87;100.00
9235;BME280;4652;42.716;23.218;2022-12-15T15:36:29;94627.78;;;4.65;100.00
9235;BME280;4652;42.716;23.218;2022-12-15T15:43:13;94630.13;;;4.56;100.00
9235;BME280;4652;42.716;23.218;2022-12-15T15:49:58;94637.63;;;4.59;100.00
9235;BME280;4652;42.716;23.218;2022-12-15T15:56:40;94635.72;;;4.55;100.00
9235;BME280;4652;42.716;23.218;2022-12-15T16:03:23;94656.53;;;4.21;100.00
9235;BME280;4652;42.716;23.218;2022-12-15T16:10:10;94610.25;;;4.00;100.00
9235;BME280;4652;42.716;23.218;2022-12-15T16:16:54;94652.63;;;4.02;100.00
9235;BME280;4652;42.716;23.218;2022-12-15T16:23:36;94536.41;;;2.84;100.00
9235;BME280;4652;42.716;23.218;2022-12-15T16:30:22;94678.69;;;3.73;100.00
9235;BME280;4652;42.716;23.218;2022-12-15T16:37:10;94691.63;;;3.86;100.00
9235;BME280;4652;42.716;23.218;2022-12-15T16:43:56;94664.78;;;3.66;100.00
9235;BME280;4652;42.716;23.218;2022-12-15T16:50:44;94677.91;;;3.51;100.00
9235;BME280;4652;42.716;23.218;2022-12-15T16:57:26;94747.78;;;3.85;100.00
9235;BME280;4652;42.716;23.218;2022-12-15T17:04:09;94699.53;;;3.81;100.00
9235;BME280;4652;42.716;23.218;2022-12-15T17:10:53;94711.03;;;4.08;100.00
9235;BME280;4652;42.716;23.218;2022-12-15T17:17:35;94676.59;;;3.75;100.00
9235;BME280;4652;42.716;23.218;2022-12-15T17:24:19;94727.84;;;3.87;100.00
9235;BME280;4652;42.716;23.218;2022-12-15T17:31:04;94740.19;;;3.72;100.00
9235;BME280;4652;42.716;23.218;2022-12-15T17:37:46;94750.28;;;3.70;100.00
9235;BME280;4652;42.716;23.218;2022-12-15T17:44:33;94752.56;;;3.61;100.00
9235;BME280;4652;42.716;23.218;2022-12-15T17:51:17;94773.97;;;3.49;100.00
9235;BME280;4652;42.716;23.218;2022-12-15T17:58:00;94761.84;;;3.59;100.00
9235;BME280;4652;42.716;23.218;2022-12-15T18:04:43;94758.56;;;3.51;100.00
9235;BME280;4652;42.716;23.218;2022-12-15T18:11:27;94740.75;;;3.14;100.00
9235;BME280;4652;42.716;23.218;2022-12-15T18:18:11;94756.66;;;3.47;100.00
9235;BME280;4652;42.716;23.218;2022-12-15T18:24:53;94756.38;;;3.27;100.00
9235;BME280;4652;42.716;23.218;2022-12-15T18:31:37;94720.16;;;2.87;100.00
9235;BME280;4652;42.716;23.218;2022-12-15T18:38:20;94760.50;;;3.01;100.00
9235;BME280;4652;42.716;23.218;2022-12-15T18:45:14;94754.28;;;3.12;100.00
9235;BME280;4652;42.716;23.218;2022-12-15T18:51:58;94800.50;;;3.06;100.00
9235;BME280;4652;42.716;23.218;2022-12-15T18:58:41;94675.97;;;2.48;100.00
9235;BME280;4652;42.716;23.218;2022-12-15T19:05:25;94751.59;;;2.74;100.00
9235;BME280;4652;42.716;23.218;2022-12-15T19:12:14;94707.88;;;2.48;100.00
9235;BME280;4652;42.716;23.218;2022-12-15T19:18:59;94772.06;;;2.73;100.00
9235;BME280;4652;42.716;23.218;2022-12-15T19:25:59;94774.69;;;2.90;100.00
9235;BME280;4652;42.716;23.218;2022-12-15T19:32:43;94789.28;;;2.87;100.00
9235;BME280;4652;42.716;23.218;2022-12-15T19:39:25;94772.44;;;2.98;100.00
9235;BME280;4652;42.716;23.218;2022-12-15T19:46:11;94767.38;;;2.80;100.00
9235;BME280;4652;42.716;23.218;2022-12-15T19:52:56;94799.63;;;3.01;100.00
9235;BME280;4652;42.716;23.218;2022-12-15T19:59:39;94782.19;;;2.93;100.00
9235;BME280;4652;42.716;23.218;2022-12-15T20:18:32;94797.50;;;3.58;100.00
9235;BME280;4652;42.716;23.218;2022-12-15T20:25:16;94800.06;;;3.31;100.00
9235;BME280;4652;42.716;23.218;2022-12-15T20:31:58;94765.94;;;3.06;100.00
9235;BME280;4652;42.716;23.218;2022-12-15T20:38:43;94752.91;;;3.10;100.00
9235;BME280;4652;42.716;23.218;2022-12-15T20:45:25;94746.25;;;2.90;100.00
9235;BME280;4652;42.716;23.218;2022-12-15T20:52:14;94752.66;;;2.73;100.00
9235;BME280;4652;42.716;23.218;2022-12-15T20:59:01;94783.41;;;2.85;100.00
9235;BME280;4652;42.716;23.218;2022-12-15T21:05:43;94790.28;;;2.81;100.00
9235;BME280;4652;42.716;23.218;2022-12-15T21:12:26;94750.28;;;2.43;100.00
